sensor_id;sensor_type;location;lat;lon;timestamp;P1;durP1;ratioP1;P2;durP2;ratioP2
20749;SDS011;10535;50.664;4.564;2022-09-12T00:00:39;9.37;;;4.63;;
20749;SDS011;10535;50.664;4.564;2022-09-12T00:03:04;6.90;;;3.80;;
20749;SDS011;10535;50.664;4.564;2022-09-12T00:05:30;5.80;;;4.03;;
20749;SDS011;10535;50.664;4.564;2022-09-12T00:07:57;6.27;;;4.27;;
20749;SDS011;10535;50.664;4.564;2022-09-12T00:10:23;5.07;;;3.87;;
20749;SDS011;10535;50.664;4.564;2022-09-12T00:12:49;5.47;;;4.00;;
20749;SDS011;10535;50.664;4.564;2022-09-12T00:15:16;6.23;;;4.13;;
20749;SDS011;10535;50.664;4.564;2022-09-12T00:17:42;7.20;;;3.90;;
20749;SDS011;10535;50.664;4.564;2022-09-12T00:20:08;5.73;;;4.20;;
20749;SDS011;10535;50.664;4.564;2022-09-12T00:22:35;6.70;;;4.77;;
20749;SDS011;10535;50.664;4.564;2022-09-12T00:25:01;9.53;;;5.17;;
20749;SDS011;10535;50.664;4.564;2022-09-12T00:27:27;6.93;;;4.43;;
20749;SDS011;10535;50.664;4.564;2022-09-12T00:29:54;6.03;;;4.20;;
20749;SDS011;10535;50.664;4.564;2022-09-12T00:32:20;6.63;;;3.97;;
20749;SDS011;10535;50.664;4.564;2022-09-12T00:34:45;5.97;;;3.60;;
20749;SDS011;10535;50.664;4.564;2022-09-12T00:37:12;7.17;;;4.57;;
20749;SDS011;10535;50.664;4.564;2022-09-12T00:39:37;11.17;;;5.33;;
20749;SDS011;10535;50.664;4.564;2022-09-12T00:42:03;7.53;;;4.67;;
20749;SDS011;10535;50.664;4.564;2022-09-12T00:49:28;6.90;;;3.80;;
20749;SDS011;10535;50.664;4.564;2022-09-12T00:52:04;6.50;;;4.47;;
20749;SDS011;10535;50.664;4.564;2022-09-12T00:57:43;9.80;;;4.20;;
20749;SDS011;10535;50.664;4.564;2022-09-12T01:00:14;7.93;;;4.17;;
20749;SDS011;10535;50.664;4.564;2022-09-12T01:02:43;5.67;;;3.77;;
20749;SDS011;10535;50.664;4.564;2022-09-12T01:05:14;5.43;;;4.07;;
20749;SDS011;10535;50.664;4.564;2022-09-12T01:07:40;6.50;;;4.17;;
20749;SDS011;10535;50.664;4.564;2022-09-12T01:10:08;8.40;;;4.27;;
20749;SDS011;10535;50.664;4.564;2022-09-12T01:12:36;5.97;;;3.97;;
20749;SDS011;10535;50.664;4.564;2022-09-12T01:15:04;6.37;;;3.73;;
20749;SDS011;10535;50.664;4.564;2022-09-12T01:17:33;5.50;;;3.77;;
20749;SDS011;10535;50.664;4.564;2022-09-12T01:23:18;6.87;;;4.63;;
20749;SDS011;10535;50.664;4.564;2022-09-12T01:28:35;5.50;;;4.13;;
20749;SDS011;10535;50.664;4.564;2022-09-12T01:31:19;5.97;;;3.57;;
20749;SDS011;10535;50.664;4.564;2022-09-12T01:34:03;5.60;;;3.97;;
20749;SDS011;10535;50.664;4.564;2022-09-12T01:39:39;8.07;;;4.47;;
20749;SDS011;10535;50.664;4.564;2022-09-12T01:47:55;8.33;;;4.80;;
20749;SDS011;10535;50.664;4.564;2022-09-12T01:50:29;7.17;;;4.30;;
20749;SDS011;10535;50.664;4.564;2022-09-12T01:53:06;7.63;;;4.30;;
20749;SDS011;10535;50.664;4.564;2022-09-12T01:55:44;7.00;;;4.57;;
20749;SDS011;10535;50.664;4.564;2022-09-12T01:58:20;7.80;;;4.60;;
20749;SDS011;10535;50.664;4.564;2022-09-12T02:01:19;6.83;;;4.33;;
20749;SDS011;10535;50.664;4.564;2022-09-12T02:04:48;10.00;;;4.90;;
20749;SDS011;10535;50.664;4.564;2022-09-12T02:07:00;7.80;;;5.00;;
20749;SDS011;10535;50.664;4.564;2022-09-12T02:09:36;7.77;;;4.47;;
20749;SDS011;10535;50.664;4.564;2022-09-12T02:12:11;8.63;;;5.30;;
20749;SDS011;10535;50.664;4.564;2022-09-12T02:14:42;7.37;;;4.90;;
20749;SDS011;10535;50.664;4.564;2022-09-12T02:17:17;8.37;;;4.87;;
20749;SDS011;10535;50.664;4.564;2022-09-12T02:19:48;9.37;;;5.77;;
20749;SDS011;10535;50.664;4.564;2022-09-12T02:22:22;6.60;;;4.70;;
20749;SDS011;10535;50.664;4.564;2022-09-12T02:24:51;5.83;;;4.10;;
20749;SDS011;10535;50.664;4.564;2022-09-12T02:27:23;7.70;;;4.80;;
20749;SDS011;10535;50.664;4.564;2022-09-12T02:29:54;7.53;;;4.83;;
20749;SDS011;10535;50.664;4.564;2022-09-12T02:33:04;9.00;;;5.17;;
20749;SDS011;10535;50.664;4.564;2022-09-12T02:38:03;9.23;;;5.10;;
20749;SDS011;10535;50.664;4.564;2022-09-12T02:40:35;9.03;;;4.80;;
20749;SDS011;10535;50.664;4.564;2022-09-12T02:43:02;7.33;;;4.67;;
20749;SDS011;10535;50.664;4.564;2022-09-12T02:45:29;8.03;;;4.87;;
20749;SDS011;10535;50.664;4.564;2022-09-12T02:50:45;8.90;;;4.80;;
20749;SDS011;10535;50.664;4.564;2022-09-12T02:53:10;8.23;;;5.03;;
20749;SDS011;10535;50.664;4.564;2022-09-12T02:55:37;8.97;;;4.80;;
20749;SDS011;10535;50.664;4.564;2022-09-12T02:58:05;7.60;;;4.87;;
20749;SDS011;10535;50.664;4.564;2022-09-12T03:03:30;6.80;;;4.30;;
20749;SDS011;10535;50.664;4.564;2022-09-12T03:06:23;9.33;;;4.47;;
20749;SDS011;10535;50.664;4.564;2022-09-12T03:10:05;9.37;;;4.87;;
20749;SDS011;10535;50.664;4.564;2022-09-12T03:20:09;9.07;;;5.70;;
20749;SDS011;10535;50.664;4.564;2022-09-12T03:25:25;7.57;;;4.80;;
20749;SDS011;10535;50.664;4.564;2022-09-12T03:28:01;9.00;;;4.80;;
20749;SDS011;10535;50.664;4.564;2022-09-12T03:30:38;6.70;;;4.60;;
20749;SDS011;10535;50.664;4.564;2022-09-12T03:33:12;7.43;;;4.40;;
20749;SDS011;10535;50.664;4.564;2022-09-12T03:35:40;10.53;;;4.60;;
20749;SDS011;10535;50.664;4.564;2022-09-12T03:38:07;5.83;;;3.97;;
20749;SDS011;10535;50.664;4.564;2022-09-12T03:40:33;7.53;;;4.60;;
20749;SDS011;10535;50.664;4.564;2022-09-12T03:43:00;6.20;;;4.50;;
20749;SDS011;10535;50.664;4.564;2022-09-12T03:45:26;10.20;;;4.57;;
20749;SDS011;10535;50.664;4.564;2022-09-12T03:47:51;9.83;;;4.53;;
20749;SDS011;10535;50.664;4.564;2022-09-12T03:50:18;10.57;;;5.10;;
20749;SDS011;10535;50.664;4.564;2022-09-12T03:52:44;8.23;;;5.30;;
20749;SDS011;10535;50.664;4.564;2022-09-12T03:55:10;9.37;;;4.97;;
20749;SDS011;10535;50.664;4.564;2022-09-12T03:57:36;11.80;;;6.10;;
20749;SDS011;10535;50.664;4.564;2022-09-12T04:00:02;9.23;;;5.37;;
20749;SDS011;10535;50.664;4.564;2022-09-12T04:02:29;8.70;;;5.57;;
20749;SDS011;10535;50.664;4.564;2022-09-12T04:04:55;9.87;;;5.33;;
20749;SDS011;10535;50.664;4.564;2022-09-12T04:07:20;6.17;;;4.20;;
20749;SDS011;10535;50.664;4.564;2022-09-12T04:09:46;9.97;;;5.13;;
20749;SDS011;10535;50.664;4.564;2022-09-12T04:12:12;8.70;;;4.60;;
20749;SDS011;10535;50.664;4.564;2022-09-12T04:14:38;7.77;;;4.97;;
20749;SDS011;10535;50.664;4.564;2022-09-12T04:17:04;10.73;;;5.00;;
20749;SDS011;10535;50.664;4.564;2022-09-12T04:19:30;10.17;;;5.63;;
20749;SDS011;10535;50.664;4.564;2022-09-12T04:21:55;8.47;;;4.97;;
20749;SDS011;10535;50.664;4.564;2022-09-12T04:24:21;8.13;;;4.90;;
20749;SDS011;10535;50.664;4.564;2022-09-12T04:26:47;12.17;;;5.40;;
20749;SDS011;10535;50.664;4.564;2022-09-12T04:29:12;9.77;;;4.53;;
20749;SDS011;10535;50.664;4.564;2022-09-12T04:31:41;8.77;;;5.50;;
20749;SDS011;10535;50.664;4.564;2022-09-12T04:34:07;8.20;;;5.27;;
20749;SDS011;10535;50.664;4.564;2022-09-12T04:36:33;11.37;;;5.17;;
20749;SDS011;10535;50.664;4.564;2022-09-12T04:39:00;10.87;;;5.47;;
20749;SDS011;10535;50.664;4.564;2022-09-12T04:41:28;11.60;;;5.47;;
20749;SDS011;10535;50.664;4.564;2022-09-12T04:44:00;11.07;;;5.07;;
20749;SDS011;10535;50.664;4.564;2022-09-12T04:46:29;11.53;;;5.60;;
20749;SDS011;10535;50.664;4.564;2022-09-12T04:48:57;11.53;;;5.50;;
20749;SDS011;10535;50.664;4.564;2022-09-12T04:51:28;16.80;;;5.83;;
20749;SDS011;10535;50.664;4.564;2022-09-12T04:54:01;9.20;;;5.53;;
20749;SDS011;10535;50.664;4.564;2022-09-12T04:56:36;8.10;;;4.80;;
20749;SDS011;10535;50.664;4.564;2022-09-12T04:59:04;11.37;;;4.80;;
20749;SDS011;10535;50.664;4.564;2022-09-12T05:01:30;10.63;;;5.50;;
20749;SDS011;10535;50.664;4.564;2022-09-12T05:03:56;9.63;;;5.43;;
20749;SDS011;10535;50.664;4.564;2022-09-12T05:06:25;10.97;;;5.40;;
20749;SDS011;10535;50.664;4.564;2022-09-12T05:08:52;9.53;;;5.43;;
20749;SDS011;10535;50.664;4.564;2022-09-12T05:11:19;10.10;;;5.57;;
20749;SDS011;10535;50.664;4.564;2022-09-12T05:13:49;7.27;;;4.53;;
20749;SDS011;10535;50.664;4.564;2022-09-12T05:16:16;8.83;;;4.30;;
20749;SDS011;10535;50.664;4.564;2022-09-12T05:18:43;9.03;;;4.90;;
20749;SDS011;10535;50.664;4.564;2022-09-12T05:21:13;9.13;;;4.60;;
20749;SDS011;10535;50.664;4.564;2022-09-12T05:23:39;10.00;;;5.60;;
20749;SDS011;10535;50.664;4.564;2022-09-12T05:26:06;8.90;;;5.10;;
20749;SDS011;10535;50.664;4.564;2022-09-12T05:28:33;7.63;;;4.90;;
20749;SDS011;10535;50.664;4.564;2022-09-12T05:31:01;10.77;;;5.90;;
20749;SDS011;10535;50.664;4.564;2022-09-12T05:33:28;7.20;;;4.70;;
20749;SDS011;10535;50.664;4.564;2022-09-12T05:35:54;11.43;;;4.80;;
20749;SDS011;10535;50.664;4.564;2022-09-12T05:38:19;10.27;;;5.30;;
20749;SDS011;10535;50.664;4.564;2022-09-12T05:40:45;8.67;;;4.97;;
20749;SDS011;10535;50.664;4.564;2022-09-12T05:43:11;10.97;;;4.77;;
20749;SDS011;10535;50.664;4.564;2022-09-12T05:45:37;7.47;;;4.50;;
20749;SDS011;10535;50.664;4.564;2022-09-12T05:48:03;7.77;;;4.63;;
20749;SDS011;10535;50.664;4.564;2022-09-12T05:50:29;8.23;;;4.40;;
20749;SDS011;10535;50.664;4.564;2022-09-12T05:52:55;9.30;;;4.77;;
20749;SDS011;10535;50.664;4.564;2022-09-12T05:55:21;7.30;;;4.67;;
20749;SDS011;10535;50.664;4.564;2022-09-12T05:57:48;8.77;;;5.07;;
20749;SDS011;10535;50.664;4.564;2022-09-12T06:00:14;9.67;;;4.80;;
20749;SDS011;10535;50.664;4.564;2022-09-12T06:02:40;8.50;;;4.23;;
20749;SDS011;10535;50.664;4.564;2022-09-12T06:05:06;8.07;;;5.00;;
20749;SDS011;10535;50.664;4.564;2022-09-12T06:07:32;7.97;;;4.97;;
20749;SDS011;10535;50.664;4.564;2022-09-12T06:09:59;10.77;;;4.83;;
20749;SDS011;10535;50.664;4.564;2022-09-12T06:12:27;8.23;;;4.63;;
20749;SDS011;10535;50.664;4.564;2022-09-12T06:14:54;9.60;;;5.17;;
20749;SDS011;10535;50.664;4.564;2022-09-12T06:17:21;7.17;;;4.83;;
20749;SDS011;10535;50.664;4.564;2022-09-12T06:19:49;9.23;;;4.93;;
20749;SDS011;10535;50.664;4.564;2022-09-12T06:22:16;7.73;;;4.47;;
20749;SDS011;10535;50.664;4.564;2022-09-12T06:24:57;14.93;;;5.50;;
20749;SDS011;10535;50.664;4.564;2022-09-12T06:27:23;13.60;;;4.80;;
20749;SDS011;10535;50.664;4.564;2022-09-12T06:29:48;7.87;;;4.43;;
20749;SDS011;10535;50.664;4.564;2022-09-12T06:32:14;7.47;;;3.97;;
20749;SDS011;10535;50.664;4.564;2022-09-12T06:34:40;10.20;;;4.50;;
20749;SDS011;10535;50.664;4.564;2022-09-12T06:37:09;6.70;;;3.53;;
20749;SDS011;10535;50.664;4.564;2022-09-12T06:39:37;10.53;;;4.03;;
20749;SDS011;10535;50.664;4.564;2022-09-12T06:42:03;7.40;;;3.13;;
20749;SDS011;10535;50.664;4.564;2022-09-12T06:44:29;4.73;;;3.23;;
20749;SDS011;10535;50.664;4.564;2022-09-12T06:46:56;6.20;;;3.87;;
20749;SDS011;10535;50.664;4.564;2022-09-12T06:49:24;4.90;;;3.47;;
20749;SDS011;10535;50.664;4.564;2022-09-12T06:51:50;5.40;;;3.67;;
20749;SDS011;10535;50.664;4.564;2022-09-12T06:54:16;8.73;;;4.10;;
20749;SDS011;10535;50.664;4.564;2022-09-12T06:56:42;10.57;;;5.03;;
20749;SDS011;10535;50.664;4.564;2022-09-12T06:59:08;7.33;;;3.57;;
20749;SDS011;10535;50.664;4.564;2022-09-12T07:01:34;9.20;;;4.80;;
20749;SDS011;10535;50.664;4.564;2022-09-12T07:04:00;9.77;;;4.77;;
20749;SDS011;10535;50.664;4.564;2022-09-12T07:06:28;9.00;;;4.53;;
20749;SDS011;10535;50.664;4.564;2022-09-12T07:08:59;12.43;;;5.43;;
20749;SDS011;10535;50.664;4.564;2022-09-12T07:11:28;12.30;;;5.27;;
20749;SDS011;10535;50.664;4.564;2022-09-12T07:13:59;8.67;;;5.20;;
20749;SDS011;10535;50.664;4.564;2022-09-12T07:16:26;10.70;;;5.07;;
20749;SDS011;10535;50.664;4.564;2022-09-12T07:18:53;9.80;;;5.07;;
20749;SDS011;10535;50.664;4.564;2022-09-12T07:21:21;11.20;;;5.57;;
20749;SDS011;10535;50.664;4.564;2022-09-12T07:23:47;10.20;;;4.90;;
20749;SDS011;10535;50.664;4.564;2022-09-12T07:26:13;9.83;;;5.10;;
20749;SDS011;10535;50.664;4.564;2022-09-12T07:28:49;8.80;;;4.47;;
20749;SDS011;10535;50.664;4.564;2022-09-12T07:31:36;6.90;;;4.67;;
20749;SDS011;10535;50.664;4.564;2022-09-12T07:34:05;8.50;;;4.67;;
20749;SDS011;10535;50.664;4.564;2022-09-12T07:36:31;8.07;;;4.50;;
20749;SDS011;10535;50.664;4.564;2022-09-12T07:41:41;8.50;;;4.93;;
20749;SDS011;10535;50.664;4.564;2022-09-12T07:44:11;8.67;;;4.30;;
20749;SDS011;10535;50.664;4.564;2022-09-12T07:46:49;8.97;;;5.27;;
20749;SDS011;10535;50.664;4.564;2022-09-12T07:49:15;8.07;;;5.00;;
20749;SDS011;10535;50.664;4.564;2022-09-12T07:51:41;7.70;;;4.80;;
20749;SDS011;10535;50.664;4.564;2022-09-12T07:54:07;6.83;;;4.77;;
20749;SDS011;10535;50.664;4.564;2022-09-12T07:56:55;6.37;;;4.27;;
20749;SDS011;10535;50.664;4.564;2022-09-12T07:59:23;8.53;;;4.73;;
20749;SDS011;10535;50.664;4.564;2022-09-12T08:01:52;6.20;;;4.27;;
20749;SDS011;10535;50.664;4.564;2022-09-12T08:04:19;10.63;;;4.20;;
20749;SDS011;10535;50.664;4.564;2022-09-12T08:07:11;5.90;;;4.00;;
20749;SDS011;10535;50.664;4.564;2022-09-12T08:09:37;9.47;;;4.37;;
20749;SDS011;10535;50.664;4.564;2022-09-12T08:12:06;7.13;;;4.10;;
20749;SDS011;10535;50.664;4.564;2022-09-12T08:14:32;6.50;;;3.67;;
20749;SDS011;10535;50.664;4.564;2022-09-12T08:17:17;4.37;;;3.07;;
20749;SDS011;10535;50.664;4.564;2022-09-12T08:19:45;4.57;;;3.07;;
20749;SDS011;10535;50.664;4.564;2022-09-12T08:22:15;3.83;;;2.83;;
20749;SDS011;10535;50.664;4.564;2022-09-12T08:25:01;5.60;;;3.30;;
20749;SDS011;10535;50.664;4.564;2022-09-12T08:27:59;5.17;;;3.37;;
20749;SDS011;10535;50.664;4.564;2022-09-12T08:30:27;5.20;;;2.80;;
20749;SDS011;10535;50.664;4.564;2022-09-12T08:32:53;7.97;;;2.60;;
20749;SDS011;10535;50.664;4.564;2022-09-12T08:35:19;5.00;;;3.03;;
20749;SDS011;10535;50.664;4.564;2022-09-12T08:37:45;4.50;;;3.03;;
20749;SDS011;10535;50.664;4.564;2022-09-12T08:40:14;3.60;;;2.17;;
20749;SDS011;10535;50.664;4.564;2022-09-12T08:43:15;4.53;;;2.40;;
20749;SDS011;10535;50.664;4.564;2022-09-12T08:45:57;4.97;;;2.50;;
20749;SDS011;10535;50.664;4.564;2022-09-12T08:48:34;2.67;;;1.83;;
20749;SDS011;10535;50.664;4.564;2022-09-12T08:51:11;2.93;;;2.20;;
20749;SDS011;10535;50.664;4.564;2022-09-12T08:53:41;3.50;;;2.33;;
20749;SDS011;10535;50.664;4.564;2022-09-12T08:56:11;2.67;;;1.80;;
20749;SDS011;10535;50.664;4.564;2022-09-12T08:58:41;3.60;;;2.57;;
20749;SDS011;10535;50.664;4.564;2022-09-12T09:07:06;3.57;;;2.20;;
20749;SDS011;10535;50.664;4.564;2022-09-12T09:12:53;3.43;;;2.43;;
20749;SDS011;10535;50.664;4.564;2022-09-12T09:18:21;3.27;;;1.80;;
20749;SDS011;10535;50.664;4.564;2022-09-12T09:20:56;1.93;;;1.70;;
20749;SDS011;10535;50.664;4.564;2022-09-12T09:23:30;2.40;;;1.67;;
20749;SDS011;10535;50.664;4.564;2022-09-12T09:26:14;3.43;;;1.87;;
20749;SDS011;10535;50.664;4.564;2022-09-12T09:31:45;3.27;;;1.60;;
20749;SDS011;10535;50.664;4.564;2022-09-12T09:34:20;1.60;;;1.50;;
20749;SDS011;10535;50.664;4.564;2022-09-12T09:36:48;1.93;;;1.60;;
20749;SDS011;10535;50.664;4.564;2022-09-12T09:42:04;2.43;;;1.93;;
20749;SDS011;10535;50.664;4.564;2022-09-12T09:44:43;3.90;;;2.03;;
20749;SDS011;10535;50.664;4.564;2022-09-12T09:47:13;1.73;;;1.30;;
20749;SDS011;10535;50.664;4.564;2022-09-12T09:49:39;3.23;;;1.90;;
20749;SDS011;10535;50.664;4.564;2022-09-12T09:52:07;3.10;;;1.87;;
20749;SDS011;10535;50.664;4.564;2022-09-12T09:54:42;3.27;;;1.43;;
20749;SDS011;10535;50.664;4.564;2022-09-12T10:00:26;1.23;;;1.13;;
20749;SDS011;10535;50.664;4.564;2022-09-12T10:05:51;2.30;;;1.57;;
20749;SDS011;10535;50.664;4.564;2022-09-12T10:08:26;2.17;;;1.60;;
20749;SDS011;10535;50.664;4.564;2022-09-12T10:18:58;1.90;;;1.13;;
20749;SDS011;10535;50.664;4.564;2022-09-12T10:21:38;1.43;;;1.10;;
20749;SDS011;10535;50.664;4.564;2022-09-12T10:26:53;3.33;;;1.20;;
20749;SDS011;10535;50.664;4.564;2022-09-12T10:30:05;2.27;;;1.03;;
20749;SDS011;10535;50.664;4.564;2022-09-12T10:32:43;1.50;;;1.00;;
20749;SDS011;10535;50.664;4.564;2022-09-12T10:35:27;1.17;;;1.10;;
20749;SDS011;10535;50.664;4.564;2022-09-12T10:37:59;1.40;;;1.30;;
20749;SDS011;10535;50.664;4.564;2022-09-12T10:40:38;2.57;;;1.20;;
20749;SDS011;10535;50.664;4.564;2022-09-12T10:43:39;1.80;;;1.50;;
20749;SDS011;10535;50.664;4.564;2022-09-12T10:48:46;3.65;;;1.20;;
20749;SDS011;10535;50.664;4.564;2022-09-12T10:51:25;2.60;;;1.27;;
20749;SDS011;10535;50.664;4.564;2022-09-12T10:53:59;1.10;;;1.00;;
20749;SDS011;10535;50.664;4.564;2022-09-12T10:56:32;1.92;;;1.05;;
20749;SDS011;10535;50.664;4.564;2022-09-12T11:04:39;1.15;;;1.05;;
20749;SDS011;10535;50.664;4.564;2022-09-12T11:07:26;2.10;;;1.13;;
20749;SDS011;10535;50.664;4.564;2022-09-12T11:26:36;2.25;;;1.42;;
20749;SDS011;10535;50.664;4.564;2022-09-12T11:29:18;1.08;;;1.00;;
20749;SDS011;10535;50.664;4.564;2022-09-12T11:34:19;2.80;;;1.35;;
20749;SDS011;10535;50.664;4.564;2022-09-12T11:37:07;1.13;;;1.00;;
20749;SDS011;10535;50.664;4.564;2022-09-12T11:39:52;2.13;;;1.20;;
20749;SDS011;10535;50.664;4.564;2022-09-12T11:42:28;0.98;;;0.80;;
20749;SDS011;10535;50.664;4.564;2022-09-12T11:45:01;1.00;;;0.90;;
20749;SDS011;10535;50.664;4.564;2022-09-12T11:47:36;1.30;;;1.20;;
20749;SDS011;10535;50.664;4.564;2022-09-12T11:50:12;2.58;;;0.95;;
20749;SDS011;10535;50.664;4.564;2022-09-12T11:52:47;2.05;;;0.70;;
20749;SDS011;10535;50.664;4.564;2022-09-12T11:55:16;1.13;;;1.02;;
20749;SDS011;10535;50.664;4.564;2022-09-12T11:57:53;0.75;;;0.75;;
20749;SDS011;10535;50.664;4.564;2022-09-12T12:08:42;2.60;;;1.10;;
20749;SDS011;10535;50.664;4.564;2022-09-12T12:11:10;1.10;;;0.90;;
20749;SDS011;10535;50.664;4.564;2022-09-12T12:13:39;1.15;;;1.00;;
20749;SDS011;10535;50.664;4.564;2022-09-12T12:16:25;2.40;;;1.05;;
20749;SDS011;10535;50.664;4.564;2022-09-12T12:18:54;2.65;;;1.30;;
20749;SDS011;10535;50.664;4.564;2022-09-12T12:29:09;0.70;;;0.68;;
20749;SDS011;10535;50.664;4.564;2022-09-12T12:40:09;1.67;;;0.63;;
20749;SDS011;10535;50.664;4.564;2022-09-12T12:47:54;0.82;;;0.82;;
20749;SDS011;10535;50.664;4.564;2022-09-12T12:50:24;0.95;;;0.70;;
20749;SDS011;10535;50.664;4.564;2022-09-12T12:55:26;0.82;;;0.75;;
20749;SDS011;10535;50.664;4.564;2022-09-12T12:58:06;1.02;;;0.82;;
20749;SDS011;10535;50.664;4.564;2022-09-12T13:00:48;0.98;;;0.80;;
20749;SDS011;10535;50.664;4.564;2022-09-12T13:03:55;0.90;;;0.90;;
20749;SDS011;10535;50.664;4.564;2022-09-12T13:06:28;0.73;;;0.70;;
20749;SDS011;10535;50.664;4.564;2022-09-12T13:08:59;1.05;;;0.75;;
20749;SDS011;10535;50.664;4.564;2022-09-12T13:11:34;0.95;;;0.60;;
20749;SDS011;10535;50.664;4.564;2022-09-12T13:14:30;0.95;;;0.80;;
20749;SDS011;10535;50.664;4.564;2022-09-12T13:17:00;0.75;;;0.70;;
20749;SDS011;10535;50.664;4.564;2022-09-12T13:19:30;1.50;;;0.68;;
20749;SDS011;10535;50.664;4.564;2022-09-12T13:22:07;0.65;;;0.65;;
20749;SDS011;10535;50.664;4.564;2022-09-12T13:24:41;0.93;;;0.93;;
20749;SDS011;10535;50.664;4.564;2022-09-12T13:30:04;1.65;;;0.80;;
20749;SDS011;10535;50.664;4.564;2022-09-12T13:32:38;0.75;;;0.75;;
20749;SDS011;10535;50.664;4.564;2022-09-12T13:35:11;2.17;;;0.80;;
20749;SDS011;10535;50.664;4.564;2022-09-12T13:37:56;0.80;;;0.77;;
20749;SDS011;10535;50.664;4.564;2022-09-12T13:43:22;2.10;;;0.82;;
20749;SDS011;10535;50.664;4.564;2022-09-12T13:46:00;0.82;;;0.70;;
20749;SDS011;10535;50.664;4.564;2022-09-12T13:48:26;0.88;;;0.80;;
20749;SDS011;10535;50.664;4.564;2022-09-12T13:50:53;0.85;;;0.82;;
20749;SDS011;10535;50.664;4.564;2022-09-12T13:53:26;0.70;;;0.70;;
20749;SDS011;10535;50.664;4.564;2022-09-12T13:55:55;1.17;;;0.80;;
20749;SDS011;10535;50.664;4.564;2022-09-12T13:58:24;0.77;;;0.65;;
20749;SDS011;10535;50.664;4.564;2022-09-12T14:03:55;0.68;;;0.63;;
20749;SDS011;10535;50.664;4.564;2022-09-12T14:06:50;0.70;;;0.70;;
20749;SDS011;10535;50.664;4.564;2022-09-12T14:12:27;1.02;;;0.80;;
20749;SDS011;10535;50.664;4.564;2022-09-12T14:15:13;4.18;;;1.20;;
20749;SDS011;10535;50.664;4.564;2022-09-12T14:17:47;0.60;;;0.60;;
20749;SDS011;10535;50.664;4.564;2022-09-12T14:20:18;0.68;;;0.68;;
20749;SDS011;10535;50.664;4.564;2022-09-12T14:22:47;1.13;;;0.60;;
20749;SDS011;10535;50.664;4.564;2022-09-12T14:25:21;0.82;;;0.50;;
20749;SDS011;10535;50.664;4.564;2022-09-12T14:27:54;3.03;;;0.70;;
20749;SDS011;10535;50.664;4.564;2022-09-12T14:35:30;1.48;;;0.73;;
20749;SDS011;10535;50.664;4.564;2022-09-12T14:38:04;0.80;;;0.80;;
20749;SDS011;10535;50.664;4.564;2022-09-12T14:40:39;0.93;;;0.80;;
20749;SDS011;10535;50.664;4.564;2022-09-12T14:43:20;0.70;;;0.70;;
20749;SDS011;10535;50.664;4.564;2022-09-12T14:45:53;0.88;;;0.63;;
20749;SDS011;10535;50.664;4.564;2022-09-12T14:48:21;0.60;;;0.60;;
20749;SDS011;10535;50.664;4.564;2022-09-12T14:50:48;0.73;;;0.60;;
20749;SDS011;10535;50.664;4.564;2022-09-12T14:56:05;0.82;;;0.65;;
20749;SDS011;10535;50.664;4.564;2022-09-12T14:58:34;1.15;;;0.80;;
20749;SDS011;10535;50.664;4.564;2022-09-12T15:01:01;3.40;;;0.90;;
20749;SDS011;10535;50.664;4.564;2022-09-12T15:06:34;0.80;;;0.80;;
20749;SDS011;10535;50.664;4.564;2022-09-12T15:09:07;1.00;;;0.95;;
20749;SDS011;10535;50.664;4.564;2022-09-12T15:11:38;2.30;;;0.98;;
20749;SDS011;10535;50.664;4.564;2022-09-12T15:14:13;0.93;;;0.85;;
20749;SDS011;10535;50.664;4.564;2022-09-12T15:16:39;1.40;;;0.88;;
20749;SDS011;10535;50.664;4.564;2022-09-12T15:19:05;5.07;;;0.90;;
20749;SDS011;10535;50.664;4.564;2022-09-12T15:21:31;1.13;;;0.80;;
20749;SDS011;10535;50.664;4.564;2022-09-12T15:23:56;0.70;;;0.70;;
20749;SDS011;10535;50.664;4.564;2022-09-12T15:26:23;0.70;;;0.70;;
20749;SDS011;10535;50.664;4.564;2022-09-12T15:28:51;0.80;;;0.80;;
20749;SDS011;10535;50.664;4.564;2022-09-12T15:31:24;2.20;;;0.90;;
20749;SDS011;10535;50.664;4.564;2022-09-12T15:33:52;0.70;;;0.60;;
20749;SDS011;10535;50.664;4.564;2022-09-12T15:36:20;1.08;;;0.98;;
20749;SDS011;10535;50.664;4.564;2022-09-12T15:38:46;0.77;;;0.70;;
20749;SDS011;10535;50.664;4.564;2022-09-12T15:41:17;1.15;;;0.73;;
20749;SDS011;10535;50.664;4.564;2022-09-12T15:43:52;1.27;;;0.80;;
20749;SDS011;10535;50.664;4.564;2022-09-12T15:46:17;1.45;;;0.73;;
20749;SDS011;10535;50.664;4.564;2022-09-12T15:48:44;0.70;;;0.70;;
20749;SDS011;10535;50.664;4.564;2022-09-12T15:51:10;1.33;;;0.93;;
20749;SDS011;10535;50.664;4.564;2022-09-12T15:53:40;1.27;;;1.00;;
20749;SDS011;10535;50.664;4.564;2022-09-12T15:56:06;1.48;;;1.00;;
20749;SDS011;10535;50.664;4.564;2022-09-12T15:58:32;0.90;;;0.80;;
20749;SDS011;10535;50.664;4.564;2022-09-12T16:00:57;0.80;;;0.80;;
20749;SDS011;10535;50.664;4.564;2022-09-12T16:03:24;0.80;;;0.80;;
20749;SDS011;10535;50.664;4.564;2022-09-12T16:05:58;2.28;;;0.90;;
20749;SDS011;10535;50.664;4.564;2022-09-12T16:08:26;1.95;;;1.10;;
20749;SDS011;10535;50.664;4.564;2022-09-12T16:10:54;1.15;;;1.00;;
20749;SDS011;10535;50.664;4.564;2022-09-12T16:13:22;1.85;;;0.93;;
20749;SDS011;10535;50.664;4.564;2022-09-12T16:15:48;1.35;;;1.10;;
20749;SDS011;10535;50.664;4.564;2022-09-12T16:18:14;1.20;;;1.05;;
20749;SDS011;10535;50.664;4.564;2022-09-12T16:20:40;0.90;;;0.90;;
20749;SDS011;10535;50.664;4.564;2022-09-12T16:23:06;1.20;;;1.00;;
20749;SDS011;10535;50.664;4.564;2022-09-12T16:25:35;0.75;;;0.75;;
20749;SDS011;10535;50.664;4.564;2022-09-12T16:28:01;0.68;;;0.68;;
20749;SDS011;10535;50.664;4.564;2022-09-12T16:30:29;1.20;;;1.08;;
20749;SDS011;10535;50.664;4.564;2022-09-12T16:32:55;0.90;;;0.90;;
20749;SDS011;10535;50.664;4.564;2022-09-12T16:35:22;1.40;;;1.08;;
20749;SDS011;10535;50.664;4.564;2022-09-12T16:37:48;2.38;;;0.88;;
20749;SDS011;10535;50.664;4.564;2022-09-12T16:40:14;0.68;;;0.68;;
20749;SDS011;10535;50.664;4.564;2022-09-12T16:42:42;4.03;;;1.23;;
20749;SDS011;10535;50.664;4.564;2022-09-12T16:45:07;0.50;;;0.50;;
20749;SDS011;10535;50.664;4.564;2022-09-12T16:47:33;1.88;;;0.77;;
20749;SDS011;10535;50.664;4.564;2022-09-12T16:49:59;3.30;;;0.73;;
20749;SDS011;10535;50.664;4.564;2022-09-12T16:52:25;2.42;;;1.02;;
20749;SDS011;10535;50.664;4.564;2022-09-12T16:54:51;0.50;;;0.50;;
20749;SDS011;10535;50.664;4.564;2022-09-12T16:57:16;1.13;;;0.82;;
20749;SDS011;10535;50.664;4.564;2022-09-12T16:59:42;2.08;;;0.82;;
20749;SDS011;10535;50.664;4.564;2022-09-12T17:02:10;0.63;;;0.63;;
20749;SDS011;10535;50.664;4.564;2022-09-12T17:04:37;1.77;;;0.88;;
20749;SDS011;10535;50.664;4.564;2022-09-12T17:07:03;3.35;;;0.70;;
20749;SDS011;10535;50.664;4.564;2022-09-12T17:09:29;0.60;;;0.60;;
20749;SDS011;10535;50.664;4.564;2022-09-12T17:11:56;1.10;;;0.50;;
20749;SDS011;10535;50.664;4.564;2022-09-12T17:14:22;0.70;;;0.57;;
20749;SDS011;10535;50.664;4.564;2022-09-12T17:16:48;1.05;;;0.68;;
20749;SDS011;10535;50.664;4.564;2022-09-12T17:19:15;0.63;;;0.50;;
20749;SDS011;10535;50.664;4.564;2022-09-12T17:21:43;1.15;;;0.60;;
20749;SDS011;10535;50.664;4.564;2022-09-12T17:24:11;1.33;;;0.75;;
20749;SDS011;10535;50.664;4.564;2022-09-12T17:26:37;1.10;;;0.63;;
20749;SDS011;10535;50.664;4.564;2022-09-12T17:29:03;0.68;;;0.50;;
20749;SDS011;10535;50.664;4.564;2022-09-12T17:31:29;0.80;;;0.57;;
20749;SDS011;10535;50.664;4.564;2022-09-12T17:33:56;0.55;;;0.55;;
20749;SDS011;10535;50.664;4.564;2022-09-12T17:36:22;0.52;;;0.52;;
20749;SDS011;10535;50.664;4.564;2022-09-12T17:38:51;0.65;;;0.50;;
20749;SDS011;10535;50.664;4.564;2022-09-12T17:41:20;1.48;;;0.70;;
20749;SDS011;10535;50.664;4.564;2022-09-12T17:43:51;0.88;;;0.63;;
20749;SDS011;10535;50.664;4.564;2022-09-12T17:46:19;2.80;;;0.80;;
20749;SDS011;10535;50.664;4.564;2022-09-12T17:48:55;0.35;;;0.35;;